Atlantic Chip Logo MyLaps Official Partner
Thursday, April 17, 2014
Registration Management Login

Results for Newfoundland Ironman 70.3
General event
July 29th, 2007

Photo album available

 
                  Ironman 70.3 Newfoundland ()
Pasadena, Newfoundland & Labrador, CANADA July 29th, 2007 Weather: Cloudy 25 Degrees Some Showers 
              Timing & Results by Atlantic Chip Event Timing
 
                           Age Group Competition
------------------------------------------------------------------------      2000 Meter                        90 Km                            21 Km
                                                            Div            ------SWIM------   ----T1----   ------BIKE-------    -----T2----  ------RUN--------
Place   bib  Time   Name              City         Pr Co    Total  Div     Pl   Time   /100   Pl    Time   Pl Time     Km/Hr    Pl    Time   Pl Time     /Km
------  --- ------- --------------    ------------ -- --    ----- ------   -----------------  -----------  -----------------    -----------  -----------------
    1   400 3:58:26 Craig Alexander   Boulder      CO US    1/14   PRO      3   24:29  1:14    3    0:54    4 2:16:57  39.4      3    0:54    1 1:14:59  3:35 
    2   395 3:58:54 Richie Cunningham Brookline    MA US    2/14   PRO      4   24:31  1:14    2    0:53    3 2:16:56  39.4      2    0:54    2 1:15:26  3:36 
    3   393 4:03:38 Marcel Vifian     Park City    UT US    3/14   PRO      5   24:38  1:14    5    0:57    2 2:16:41  39.5     17    1:12    4 1:19:56  3:49 
    4   391 4:04:53 Leon Griffin      Boulder      CO US    4/14   PRO      8   25:35  1:17    4    0:57    1 2:15:50  39.8      8    1:02    5 1:21:16  3:53 
    5   394 4:07:45 Wolfgang Guembel  St. Catherin ON CA    5/14   PRO      6   24:42  1:15    9    1:15    6 2:21:02  38.3      1    0:49    3 1:19:43  3:48 
    6   390 4:24:00 Tony Delogne      Dover        MA US    6/14   PRO     12   27:01  1:21   11    1:25    8 2:23:11  37.7     80    1:56    9 1:30:13  4:18 
    7   397 4:26:03 Pete Jacobs       Terrey Hills    NL    7/14   PRO      1   23:11  1:10    8    1:09   15 2:31:51  35.6     25    1:19    6 1:28:19  4:13 
    8   227 4:30:32 Ryan Grant        Ottawa       ON CA    1/25   M3539   30   31:18  1:34   19    1:40    9 2:27:06  36.7                                   
    9   384 4:32:22 Melissa Ashton    Newtown         AU    8/14   PRO     13   27:25  1:23    7    1:09   14 2:31:36  35.6     13    1:07   11 1:30:51  4:20 
   10   151 4:33:31 Erik Nau          San Diego    CA US    1/4    M1824    9   25:37  1:17   30    1:54   12 2:29:52  36.0     14    1:09   20 1:34:47  4:31 
   11   108 4:35:22 Rod Raymond       Duluth       MN US    1/36   M4044   20   29:00  1:27   29    1:54   11 2:29:04  36.2     24    1:18   16 1:33:51  4:29 
   12    55 4:35:40 Stephen Dyke      St. John's   NL CA    1/27   M4549   16   28:05  1:25   66    2:25   20 2:33:54  35.1     73    1:51    8 1:29:06  4:15 
   13   386 4:39:50 Magali Tisseyre   St. Sauveur  QC CA    9/14   PRO     19   28:55  1:27   17    1:36   26 2:36:17  34.6     19    1:13   12 1:31:34  4:22 
   14   180 4:43:43 Dany Bellavance   Trois-Rivièr QC CA    1/17   M3034   36   32:21  1:38   28    1:54   17 2:33:05  35.3     42    1:32   19 1:34:37  4:31 
   15   181 4:44:06 Robert Mahoney    Manchester   ME US    2/36   M4044   47   32:51  1:39   36    2:01   13 2:31:14  35.7     26    1:20   23 1:36:21  4:36 
   16   171 4:45:13 Chris Gairns      Fredericton  NB CA    1/12   M2529   28   30:39  1:32   14    1:31   19 2:33:54  35.1      9    1:03   30 1:37:50  4:40 
   17   209 4:45:31 Chris Milburn     Sydney       NS CA    2/25   M3539   45   32:44  1:39   80    2:38   18 2:33:47  35.1      7    1:02   21 1:35:04  4:32 
   18   212 4:47:27 Christopher Caswe Toronto      ON CA    3/36   M4044   34   32:20  1:37   20    1:45   24 2:34:55  34.9     11    1:06   27 1:37:06  4:38 
   19   224 4:49:47 Joseph Corcoran   Cambridge    MA US    2/17   M3034   54   33:15  1:40   15    1:32   25 2:35:12  34.8     16    1:11   33 1:38:23  4:42 
   20   282 4:51:21 Adrian Lawson     Toronto      ON CA    3/17   M3034   90   36:33  1:50   60    2:21   31 2:40:09  33.7     36    1:29   10 1:30:31  4:19 
   21   385 4:51:30 Nicole Guembel    St. Catherin ON CA   10/14   PRO     57   33:18  1:40   37    2:03   16 2:32:56  35.3     33    1:24   41 1:41:32  4:51 
   22   103 4:54:16 Blair Larsen      Toronto      ON CA    4/17   M3034   46   32:50  1:39   69    2:29   22 2:34:24  35.0     40    1:31   43 1:42:47  4:54 
   23   383 4:55:17 Julie Curwin      Sydney       NS CA   11/14   PRO     23   29:21  1:28   52    2:17   40 2:44:15  32.9     23    1:17   31 1:37:51  4:40 
   24   241 4:55:53 Cathy Yndestad    Apple Valley MN US    1/10   F2529   22   29:03  1:28   13    1:30   51 2:47:35  32.2     15    1:09   22 1:36:20  4:36 
   25   288 4:57:03 Edward Sparkowski Simsbury     CT US    1/14   M5054  127   39:02  1:58   22    1:49   27 2:37:33  34.3     60    1:43   26 1:36:40  4:37 
   26   285 4:57:21 Steve Connolly    Corner Brook NL CA    2/27   M4549   65   34:22  1:44  113    3:13   30 2:39:59  33.8     58    1:41   29 1:37:49  4:40 
   27    18 4:57:35 Doug Jones        Fredericton  NB CA    3/25   M3539   67   34:33  1:44   71    2:30   23 2:34:45  34.9     50    1:36   47 1:43:55  4:57 
   28   200 4:58:15 Glen Choma        Beaconsfield QE CA    4/36   M4044   42   32:36  1:38  167    4:18   45 2:46:08  32.5    100    2:09   13 1:32:45  4:25 
   29   154 4:58:26 Crystal Drummond  Newmarket    ON CA    1/15   F3539   21   29:01  1:28   16    1:35   59 2:48:37  32.0     29    1:22   28 1:37:36  4:39 
   30   247 4:59:24 John Walsh        Bernardsvill NJ US    5/36   M4044   37   32:21  1:38   53    2:18   44 2:45:41  32.6    116    2:18   24 1:36:31  4:36 
   31   306 5:00:19 Eric Clark        Ottawa       ON CA    4/25   M3539   35   32:20  1:37   74    2:33   91 2:53:40  31.1    126    2:27    7 1:29:02  4:15 
   32   255 5:01:16 Arthur Boyko      Poughkeepsie NY US    6/36   M4044   10   26:29  1:20   18    1:38   68 2:50:17  31.7     47    1:35   39 1:41:01  4:49 
   33   286 5:02:38 Matt Cleary       Come by Chan NL CA    5/17   M3034   53   33:09  1:40   21    1:47   46 2:46:46  32.4     31    1:23   35 1:39:18  4:44 
   34   228 5:03:08 Omar Salinas      Mexico DF    DF MX    3/27   M4549  104   37:17  1:52   83    2:41   56 2:48:22  32.1     53    1:39   14 1:32:50  4:26 
   35   293 5:03:41 Wade Minaker      Moncton      NB CA    5/25   M3539  126   38:58  1:57   38    2:04   21 2:34:23  35.0     28    1:21   54 1:46:39  5:05 
   36   271 5:03:55 Michael Duncan    Huntsville   ON CA    7/36   M4044   58   33:30  1:41   72    2:31   55 2:48:06  32.1    153    2:51   25 1:36:39  4:37 
   37    37 5:03:59 Geoff Patterson   Arlington    VA US    2/4    M1824   15   27:44  1:24   24    1:52   41 2:44:48  32.8     35    1:28   61 1:47:50  5:09 
   38   146 5:04:01 Carsten Bauer     Montvale     NJ US    8/36   M4044  118   38:20  1:55   77    2:37   29 2:39:49  33.8     69    1:50   40 1:41:11  4:50 
   39   173 5:04:05 Gregory Banks     St. John's   NL CA    6/17   M3034   97   37:00  1:51  112    3:12   35 2:41:56  33.3     38    1:30   37 1:40:08  4:47 
   40   210 5:04:08 Daniel Moore      Toronto      ON CA    6/25   M3539   92   36:40  1:50   47    2:12   34 2:40:42  33.6     94    2:06   42 1:42:13  4:53 
   41   256 5:05:52 Thomas Hall       Aurora       ON CA    2/14   M5054   60   33:43  1:42   59    2:21   38 2:43:48  33.0     10    1:04   49 1:44:40  4:59 
   42   237 5:06:55 Caroline McIlroy  Portugal Cov NL CA    2/15   F3539  103   37:15  1:52   33    1:58   73 2:50:45  31.6     91    2:05   18 1:34:37  4:31 
   43     5 5:07:31 Olivier Mouyau    Ottawa       ON CA    7/17   M3034   38   32:24  1:38   26    1:53   32 2:40:23  33.7     63    1:45   71 1:50:49  5:17 
   44   175 5:07:39 Barry Emerson     Lethbridge   AB CA    3/14   M5054   18   28:26  1:26   27    1:54   65 2:49:36  31.8     27    1:20   52 1:46:04  5:04 
   45   174 5:10:35 Bryan Marshall    Collingwood  ON CA    9/36   M4044  131   39:06  1:58   65    2:25   49 2:47:09  32.3     56    1:41   36 1:39:56  4:46 
   46    17 5:12:00 Jeff Holmes       St. John's   NL CA   10/36   M4044   98   37:09  1:52   42    2:08   39 2:44:01  32.9     39    1:31   56 1:46:55  5:06 
   47    27 5:12:16 Daniel Ouimet     Calgary      AB CA   11/36   M4044  140   39:20  1:58  162    4:09   81 2:52:23  31.3     54    1:40   17 1:34:25  4:30 
   48   207 5:12:59 Don Young         Calgary      AB CA   12/36   M4044   84   36:22  1:50  128    3:34   33 2:40:40  33.6     55    1:40   70 1:50:26  5:16 
   49    13 5:13:54 Josh Baker        Brighton     MA US    8/17   M3034   31   31:19  1:34   32    1:57   78 2:51:39  31.5     49    1:36   57 1:47:04  5:06 
   50   172 5:14:16 Norm Flemington   Surrey       BC CA    4/27   M4549   40   32:31  1:38   63    2:23   53 2:47:47  32.2     77    1:54   67 1:49:22  5:13 
   51   283 5:14:19 Steve Howlett     Corner Brook NL CA    5/27   M4549   49   33:02  1:40  126    3:29   66 2:49:37  31.8     57    1:41   53 1:46:14  5:04 
   52   196 5:14:31 Richard Bendor-Sa Halifax      NS CA    6/27   M4549   52   33:09  1:40   58    2:21   58 2:48:29  32.1     30    1:23   66 1:48:53  5:12 
   53   240 5:16:03 Adam Brown        Somerville   MA US    2/12   M2529   29   30:58  1:33   45    2:09   60 2:48:48  32.0     51    1:36   78 1:52:15  5:21 
   54   137 5:16:31 shawn Oxford      Corner Brook NL CA    7/25   M3539   59   33:31  1:41  140    3:42   77 2:51:35  31.5     44    1:33   50 1:45:56  5:03 
   55   276 5:16:56 Denis Sacks       Thornhill    ON CA    1/6    M5559  165   41:03  2:04  127    3:29   70 2:50:37  31.6    122    2:21   34 1:39:09  4:44 
   56    12 5:17:16 Jason Bailey      St. John's   NL CA    8/25   M3539  198   44:42  2:15  109    3:09   92 2:54:17  31.0     22    1:16   15 1:33:31  4:28 
   57    67 5:18:27 John Purdy        Hammonds Pla    CA    2/6    M5559   55   33:16  1:40   78    2:37   52 2:47:39  32.2    127    2:31   77 1:52:06  5:21 
   58    44 5:18:35 Isabelle Bois     Cornwall     PE CA    1/17   F3034  107   37:23  1:53   23    1:49   63 2:49:25  31.9     98    2:09   59 1:47:29  5:08 
   59   191 5:19:01 Jeff Glynn        St. John's   NL CA    3/12   M2529  115   37:59  1:54  129    3:34   36 2:42:16  33.3    196    3:57   72 1:50:50  5:17 
   60   262 5:19:57 Elizabeth Seiffer Hanwell      NB CA    1/16   F4044   43   32:41  1:39   49    2:14   72 2:50:44  31.6     78    1:55   75 1:52:02  5:21 
   61   238 5:20:39 Korkut Omur       Montreal     QC CA    7/27   M4549   39   32:27  1:38   91    2:53   97 2:55:36  30.8     61    1:44   60 1:47:39  5:08 
   62   287 5:20:59 Jacques Vigeant   San Ramon    CA US    9/25   M3539   79   35:49  1:48  108    3:08   43 2:45:38  32.6    150    2:49   83 1:53:19  5:24 
   63   221 5:21:23 Steve Harrigan    Oakville     OH CA    8/27   M4549   68   34:42  1:45   55    2:20   47 2:47:03  32.3     76    1:53   91 1:55:09  5:29 
   64   310 5:21:37 Michael Dwyer     Appleton     NL CA    4/12   M2529   25   30:33  1:32   39    2:04   80 2:52:18  31.3     72    1:51   89 1:54:32  5:28 
   65    21 5:22:30 Colin Taylor      Conception B NL CA   10/25   M3539   71   34:56  1:45  176    4:29   28 2:39:01  34.0    201    4:04  112 1:59:45  5:43 
   66   235 5:23:01 Krista Mullaly Do Paradise     NL CA    2/17   F3034   86   36:25  1:50   90    2:52  106 2:58:19  30.3     52    1:38   44 1:43:30  4:56 
   67   268 5:23:31 Ron Marshall      Corner Brook NL CA    4/14   M5054  155   40:17  2:01  149    3:53   54 2:47:58  32.1    149    2:49   63 1:48:19  5:10 
   68   289 5:23:48 Kerry Yndestad    Apple Valley MN US    9/27   M4549   96   36:55  1:51   34    2:00   88 2:53:10  31.2     20    1:14   69 1:50:09  5:15 
   69   269 5:25:14 Nick Soper        Gander       NL CA    5/14   M5054  170   41:20  2:04  147    3:49   69 2:50:36  31.7    120    2:20   55 1:46:53  5:06 
   70   295 5:25:58 Elizabeth Wagner  Somerville   MA US    2/10   F2529   62   34:12  1:43   12    1:30   99 2:56:19  30.6      4    0:58   81 1:52:43  5:23 
   71   185 5:27:01 Barry Davies      Ottawa       ON CA    9/17   M3034  102   37:14  1:52  171    4:25   61 2:48:56  32.0    119    2:19   86 1:53:51  5:26 
   72    76 5:27:04 Laura Herman      Abingdon     MD US    3/15   F3539   44   32:43  1:39   40    2:06  103 2:57:04  30.5     48    1:36   82 1:53:17  5:24 
   73   134 5:28:02 Germain Bilodeau  Quebec       QC CA   10/27   M4549  136   39:14  1:58   95    2:56   75 2:51:01  31.6     83    1:59   80 1:52:31  5:22 
   74    34 5:28:46 Abigail Steel     Outer Cove   NL CA    1/9    F4549  133   39:09  1:58   31    1:56   84 2:52:31  31.3     34    1:27   84 1:53:24  5:24 
   75   193 5:29:24 Patrick Small Leg Waverley     NS CA   13/36   M4044  137   39:15  1:58   73    2:33   57 2:48:25  32.1    132    2:36   94 1:56:16  5:33 
   76   257 5:29:31 Bruce Haydon      Ottawa       ON CA   14/36   M4044  128   39:04  1:58  130    3:35  100 2:56:28  30.6    107    2:10   62 1:47:58  5:09 
   77     8 5:29:34 Jason Pretty      St. John's   NL CA   11/25   M3539   94   36:50  1:51   82    2:41   98 2:56:02  30.7    111    2:13   73 1:51:33  5:19 
   78    95 5:29:43 Mark McMullen     Tantallon    NS CA   12/25   M3539  130   39:05  1:58   51    2:17   76 2:51:07  31.6     37    1:30   92 1:55:25  5:30 
   79   245 5:29:46 Deborah Moore     Toronto      ON CA    4/15   F3539  151   39:55  2:00   94    2:55   94 2:54:39  30.9     79    1:56   68 1:50:00  5:15 
   80   114 5:30:43 Gary Wheeler      Toronto      ON CA   15/36   M4044  216   47:48  2:24  158    4:04   37 2:43:20  33.1    182    3:35   74 1:51:34  5:19 
   81   107 5:31:47 Nathaniel Martin  New York     NY US    5/12   M2529   33   32:03  1:37  107    3:08  108 2:58:41  30.2     89    2:03   93 1:55:37  5:31 
   82   203 5:32:33 Henry Dressler    Ottawa          CA   16/36   M4044  176   42:01  2:07  131    3:36  110 2:58:42  30.2    191    3:51   48 1:44:04  4:58 
   83   281 5:34:03 Steve Cave        Corner Brook NL CA   10/17   M3034   99   37:10  1:52  150    3:55   83 2:52:30  31.3    154    2:53   98 1:57:19  5:36 
   84   315 5:34:31 Lloyd Button      St. John's   NL CA    6/14   M5054   89   36:33  1:50  138    3:41   86 2:52:52  31.2    144    2:47  105 1:58:24  5:39 
   85   213 5:34:42 Laura Dewitt      Brooksville  FL US    2/9    F4549  109   37:33  1:53   76    2:37  116 3:00:23  29.9     64    1:45   76 1:52:05  5:21 
   86   251 5:35:06 Cesar Jimenez     Toronto      ON CA   11/17   M3034   74   35:16  1:46   46    2:10  120 3:01:09  29.8     68    1:47   88 1:54:25  5:27 
   87   153 5:35:09 Rachel Saks       Waltham      MA US    5/15   F3539   27   30:38  1:32   97    2:57  162 3:10:43  28.3     71    1:51   64 1:48:42  5:11 
   88   148 5:35:10 Danny Myra        Chester Basi NS CA   12/17   M3034  108   37:26  1:53   43    2:08   71 2:50:40  31.6     43    1:33  123 2:03:00  5:52 
   89   125 5:36:09 Rachel Fox        Moncton      NB CA    3/10   F2529   51   33:07  1:40  120    3:22  115 2:59:57  30.0    124    2:23   97 1:57:04  5:35 
   90   258 5:36:15 Karen Bonham      Aurora       ON CA    3/9    F4549   93   36:46  1:51   62    2:22  101 2:56:40  30.6    101    2:10  102 1:57:59  5:38 
   91   300 5:36:23 Mark Tierney      Corner Brook NL CA    6/12   M2529   73   35:03  1:46  153    4:00   67 2:50:04  31.8    118    2:19  129 2:04:38  5:57 
   92   279 5:36:34 Olli Sundell      The Hague       NL   13/25   M3539  110   37:36  1:53  231    7:27  123 3:01:36  29.7    217    5:58   45 1:43:38  4:57 
   93   233 5:37:04 Nick Leswick      St. John's   NL CA    7/12   M2529  154   40:16  2:01  197    5:13  118 3:00:43  29.9    208    4:29   51 1:46:04  5:04 
   94   290 5:37:40 Ian Morrison      London          GB   14/25   M3539  125   38:56  1:57   87    2:48  166 3:11:43  28.2    157    2:58   38 1:40:59  4:49 
   95   141 5:38:14 Greg Brand        Burlington   ON CA   15/25   M3539  175   41:54  2:06  151    3:57   79 2:51:56  31.4    164    3:10   96 1:57:01  5:35 
   96    39 5:39:52 Darren Karasiuk   Mississauga  ON CA   16/25   M3539  146   39:42  2:00  103    3:05   87 2:53:04  31.2     18    1:13  120 2:02:30  5:50 
   97    64 5:39:55 Jason Krupp       Bedford      NS CA   17/25   M3539   32   31:46  1:36  123    3:24   42 2:45:02  32.7    114    2:17  182 2:17:08  6:32 
   98   304 5:39:56 Anna Healy        Fredericton  NB CA    3/17   F3034  120   38:36  1:56   93    2:55   96 2:55:35  30.8    134    2:38  113 1:59:55  5:43 
   99   314 5:40:23 Ian Crane         Massey Drive NL CA   17/36   M4044   17   28:26  1:26  148    3:53  146 3:07:34  28.8     97    2:09  104 1:58:05  5:38 
  100    11 5:40:49 Chris Dierkes     Arlington    MA US   18/36   M4044  166   41:04  2:04   79    2:38   85 2:52:43  31.3     87    2:02  117 2:02:04  5:49 
  101   102 5:41:06 Rob Purdy         Toronto      ON CA    3/4    M1824   80   35:50  1:48  101    3:01  124 3:01:48  29.7     46    1:34  107 1:58:36  5:39 
  102    81 5:41:50 Drew Rickard      Richmond     ON CA   11/27   M4549  159   40:37  2:02  111    3:12   82 2:52:27  31.3     32    1:23  126 2:03:49  5:54 
  103   254 5:42:02 Richard Ahong     Aurora       ON CA   12/27   M4549   24   30:04  1:31   44    2:08  125 3:01:53  29.7     70    1:50  136 2:05:49  6:00 
  104   296 5:42:34 Claudia Olivares  Mexico City  DF MX    6/15   F3539  162   40:46  2:03  187    4:58  172 3:14:16  27.8    200    4:02   32 1:38:13  4:41 
  105   250 5:42:38 Romulo Quiros     San Jose     SJ CR   19/36   M4044  196   44:15  2:13   98    2:58   64 2:49:31  31.9    151    2:50  121 2:02:47  5:51 
  106    91 5:42:42 Alex McMillin     Oakville     ON CA   20/36   M4044   66   34:23  1:44  144    3:46  128 3:02:54  29.5    136    2:39  108 1:58:42  5:40 
  107    78 5:44:19 Wendy Chioji      Winter Park  FL US    4/9    F4549  117   38:06  1:55   54    2:19  127 3:01:57  29.7     92    2:05  111 1:59:32  5:42 
  108   225 5:45:40 Georges Roberge   Ottawa       ON CA    4/4    M1824  161   40:44  2:03  116    3:17  121 3:01:15  29.8     88    2:02  103 1:58:05  5:38 
  109    97 5:46:05 Ian Bennett       St. John's   NL CA   18/25   M3539  208   46:33  2:20  117    3:17  114 2:59:47  30.0    141    2:45   85 1:53:25  5:25 
  110   106 5:46:18 Michel Girard     Gatineau     QC CA    7/14   M5054   64   34:19  1:43   50    2:15   62 2:49:19  31.9     21    1:15  186 2:18:49  6:37 
  111   135 5:46:42 Katherine Gaudrea Hunter River PE CA    1/3    F1824  123   38:53  1:57  159    4:06  119 3:00:53  29.9    123    2:23  115 2:00:07  5:44 
  112   142 5:46:42 Joe Petrush       Bay Shore    NY US   13/17   M3034   81   35:58  1:48   86    2:46   90 2:53:24  31.1    112    2:16  169 2:12:06  6:18 
  113   297 5:47:24 Teresa Pitek      Etobicoke    ON CA    2/16   F4044  124   38:55  1:57   92    2:54  131 3:03:51  29.4     81    1:57  110 1:59:25  5:42 
  114   113 5:47:28 Bruce Hamlyn      Corner Brook NL CA   13/27   M4549   26   30:35  1:32  104    3:07  117 3:00:42  29.9    102    2:10  163 2:10:34  6:13 
  115   259 5:48:14 Kimberley Stone   Corner Brook NL CA    7/15   F3539   48   33:00  1:39  175    4:28   95 2:55:11  30.8    104    2:10  172 2:13:08  6:21 
  116   299 5:48:14 Gord Doman        Corner Brook NL CA   21/36   M4044  122   38:51  1:57  196    5:11  129 3:03:06  29.5    156    2:58  101 1:57:50  5:37 
  117    23 5:48:30 Geoff Redfern     St.John's    NL CA   19/25   M3539   83   36:16  1:49  114    3:14  109 2:58:42  30.2     93    2:06  147 2:07:54  6:06 
  118   121 5:48:39 Andre Engelbrecht St. John's   NL CA   22/36   M4044  190   43:35  2:11  213    5:48  165 3:11:31  28.2    181    3:34   46 1:43:50  4:57 
  119     6 5:49:20 Peggie Slavin-Moo Nepean       ON CA    3/16   F4044   69   34:44  1:45  135    3:37  139 3:05:05  29.2     96    2:07  125 2:03:30  5:53 
  120   277 5:49:39 Luis Lozano       Bogota          CO   23/36   M4044  163   40:52  2:03  141    3:42  141 3:05:28  29.1     74    1:52  100 1:57:27  5:36 
  121   292 5:50:21 Mark Lever        Halifax      NS CA   20/25   M3539  143   39:29  1:59  186    4:49   89 2:53:12  31.2    105    2:10  162 2:10:27  6:13 
  122   170 5:50:44 Terry Clarke      Brampton     ON CA   21/25   M3539  193   44:08  2:13   70    2:30  140 3:05:22  29.1     99    2:09   95 1:56:19  5:33 
  123   192 5:51:07 Caryn Small Legs- Waverley     NS CA    5/9    F4549  180   42:19  2:07  166    4:15  152 3:08:56  28.6    140    2:42   79 1:52:29  5:22 
  124    54 5:51:19 Flora Seymour     Torbay       NL CA    4/16   F4044  142   39:26  1:59  201    5:16  157 3:09:42  28.5    117    2:18   87 1:54:22  5:27 
  125    93 5:51:58 Ian McGrath       Halifax      NS CA   14/17   M3034  119   38:30  1:56  146    3:49  135 3:04:25  29.3     86    2:01  122 2:02:58  5:52 
  126    14 5:52:05 Andreas Doerig    St. John's   NL CA   22/25   M3539   77   35:25  1:47   64    2:24  133 3:03:59  29.4     84    2:00  149 2:08:00  6:06 
  127   115 5:52:08 Kevin Garnier     Pasadena     NL CA    8/12   M2529   61   34:08  1:43  165    4:13  112 2:59:09  30.1    210    4:58  157 2:09:19  6:10 
  128   147 5:52:19 Natasha Brand     Burlington   ON CA    8/15   F3539  204   45:58  2:18  160    4:07  160 3:10:15  28.4    143    2:45   65 1:48:53  5:12 
  129    79 5:53:16 Renee Wissink     Hopewell Cap    CA   14/27   M4549  152   39:58  2:00  102    3:04  104 2:57:31  30.4    168    3:13  156 2:09:09  6:09 
  130   139 5:53:24 Jennifer Harris   St.John's    NL CA    5/16   F4044  214   47:35  2:23  192    5:04  161 3:10:28  28.4    129    2:33   58 1:47:23  5:07 
  131   305 5:54:18 Kevin Taylor      Corner  Broo NL CA   15/27   M4549   91   36:39  1:50  218    6:00  126 3:01:53  29.7    160    3:04  138 2:06:24  6:02 
  132    70 5:54:32 Paul Lutz         St. John's   NL CA   24/36   M4044  106   37:18  1:52  209    5:31   50 2:47:11  32.3    226    6:19  185 2:17:53  6:34 
  133    69 5:54:41 Kimberly Larouche St. John's   NL CA    6/16   F4044  105   37:18  1:52  134    3:37  142 3:05:39  29.1     90    2:05  134 2:05:43  6:00 
  134   298 5:54:47 Sherri Hennessey  Paradise     NL CA    4/17   F3034   75   35:16  1:46   81    2:39  149 3:07:54  28.7     85    2:00  141 2:06:39  6:02 
  135    90 5:54:48 James McMillin    Saint John   NB CA   16/27   M4549   63   34:17  1:43  125    3:28  132 3:03:54  29.4    188    3:49  155 2:09:01  6:09 
  136   131 5:55:35 Kate St.Denis     Stouffville  ON CA    4/10   F2529   56   33:18  1:40   41    2:06  151 3:08:25  28.7     75    1:52  159 2:09:35  6:11 
  137   157 5:55:37 Ellen Forhan      Island View  NB CA    5/17   F3034  172   41:21  2:05  132    3:36  130 3:03:24  29.4    110    2:12  130 2:04:46  5:57 
  138   249 5:56:34 Tim Dillon        Brampton     ON CA   17/27   M4549  100   37:11  1:52   84    2:43   93 2:54:23  31.0    109    2:12  187 2:19:44  6:40 
  139   111 5:56:43 Cindy Nickerson   Yarmouth     NS CA    1/9    F5054  145   39:36  1:59  180    4:43  156 3:09:26  28.5    130    2:33  114 1:59:59  5:43 
  140   100 5:56:44 Ryan Chieduch     Toronto      ON CA    9/12   M2529  141   39:21  1:59  119    3:18   74 2:50:58  31.6    142    2:45  188 2:20:03  6:41 
  141   311 5:57:23 Bob Brake         Burlington   ON CA    1/3    M6064  179   42:07  2:07  168    4:20  105 2:58:18  30.3    115    2:17  160 2:10:01  6:12 
  142   177 5:58:04 Laura Connolly    Corner Brook NL CA    2/3    F1824  178   42:04  2:07  139    3:41  122 3:01:34  29.7    103    2:10  153 2:08:17  6:07 
  143    85 5:58:05 Peter Callahan    Corner Brook NL CA   25/36   M4044   76   35:21  1:46  217    5:58  111 2:58:56  30.2    219    6:04  165 2:11:20  6:16 
  144    25 5:58:26 Robert Jones      Toronto      ON CA   26/36   M4044  116   38:00  1:54   99    2:58  150 3:08:08  28.7    159    3:02  137 2:05:54  6:00 
  145    71 5:58:38 Dwanda Newman     St. John's   NL CA    7/16   F4044  149   39:53  2:00  226    6:49  107 2:58:24  30.3    203    4:19  154 2:08:52  6:09 
  146   201 5:58:38 Ryan Short        Ottawa       ON CA   10/12   M2529  121   38:48  1:57  110    3:09  113 2:59:42  30.1     59    1:42  179 2:14:57  6:26 
  147    66 6:03:24 George Colbert    St. John's   NL CA   11/12   M2529   14   27:41  1:24  155    4:02  137 3:04:49  29.2    195    3:57  191 2:22:34  6:48 
  148   168 6:03:44 Peter Dolan       Larchmont    NY US    8/14   M5054  132   39:08  1:58  183    4:46  147 3:07:49  28.8    177    3:26  152 2:08:16  6:07 
  149   176 6:03:52 Shirley Granter B St. John's   NL CA    2/9    F5054  183   42:54  2:09  122    3:23  189 3:20:22  27.0     82    1:59   90 1:54:56  5:29 
  150   198 6:04:18 Julia Boenhoff    Williams Lak BC CA    5/10   F2529   82   36:02  1:49   67    2:26  186 3:18:55  27.1     67    1:46  131 2:04:51  5:57 
  151    33 6:04:52 Janine O'Keefe    St. John'S   NL CA    8/16   F4044  156   40:22  2:02  106    3:08  185 3:18:44  27.2    173    3:17  109 1:59:04  5:41 
  152    73 6:06:15 Christiane Martin St. John's   NL CA    9/16   F4044  168   41:18  2:04  207    5:29  184 3:18:32  27.2    165    3:11   99 1:57:26  5:36 
  153    75 6:06:48 Jim Gosse         St. John's   NL CA   27/36   M4044  138   39:19  1:58  190    5:01  164 3:11:18  28.2    179    3:33  143 2:07:15  6:04 
  154   101 6:07:40 Christine Hardie  Toronto      ON CA    3/3    F1824  171   41:21  2:05  136    3:38  177 3:15:30  27.6    137    2:39  127 2:04:10  5:55 
  155   126 6:09:09 Elly Winer        Toronto      ON CA   18/27   M4549  218   48:44  2:27  115    3:14  159 3:09:50  28.4     41    1:32  133 2:05:25  5:59 
  156    83 6:09:40 Kenneth Mitton    Dieppe          CA   19/27   M4549  200   45:18  2:16  142    3:44  136 3:04:28  29.3    128    2:31  174 2:13:18  6:21 
  157    94 6:10:36 Stephen Fay-Cosma Kitchener    ON CA   23/25   M3539   88   36:31  1:50  194    5:07  175 3:14:54  27.7    229    7:23  139 2:06:24  6:02 
  158   266 6:11:15 Mary Chisholm     Corner Brook NL CA    9/15   F3539  177   42:03  2:07  164    4:11  181 3:17:43  27.3    125    2:27  128 2:04:32  5:56 
  159    61 6:11:24 Tracey Shave      St. John's   NL CA   10/15   F3539   50   33:03  1:40   68    2:27  169 3:12:39  28.0    135    2:39  189 2:20:18  6:41 
  160   278 6:12:02 Raymond Baird     Lewin's Cove NL CA   20/27   M4549  134   39:12  1:58  182    4:45  153 3:08:59  28.6    205    4:25  177 2:14:22  6:24 
  161   105 6:12:03 Kenneth Hethering Eureka       NU CA    2/3    M6064  202   45:52  2:18  145    3:48  180 3:17:35  27.3    113    2:16  118 2:02:05  5:49 
  162    53 6:12:40 Donna Ryan        Cornwall     ON CA   10/16   F4044   41   32:33  1:38  105    3:07  144 3:06:54  28.9    152    2:50  198 2:26:55  7:00 
  163    74 6:13:30 Phil Graham       St. John's   NL CA    3/6    M5559  139   39:20  1:58   75    2:35  134 3:04:08  29.3    162    3:07  196 2:23:59  6:52 
  164    62 6:14:22 Sue Rodgers       Grand Falls  NL CA    6/17   F3034  213   47:01  2:22   35    2:01  163 3:10:54  28.3     65    1:46  171 2:12:22  6:19 
  165   265 6:14:22 Becky Newton      Corner Brook NL CA    7/17   F3034  184   43:14  2:10  124    3:26  158 3:09:48  28.5    139    2:41  180 2:14:57  6:26 
  166   291 6:14:39 Aldo Rock Calandr Milano          IT    9/14   M5054  158   40:30  2:02  157    4:04  182 3:18:25  27.2    175    3:23  148 2:07:58  6:06 
  167    77 6:15:07 Susan Briers      Saint August FL US    3/9    F5054  153   40:05  2:01   85    2:46  173 3:14:38  27.7    174    3:20  175 2:13:58  6:23 
  168    57 6:15:18 K. Dobbin         Mount Pearl  NL CA   28/36   M4044  169   41:18  2:04  225    6:38  176 3:15:02  27.7    223    6:15  135 2:05:47  6:00 
  169   164 6:15:35 Jacqueline Davies Tampa        FL US   11/16   F4044   87   36:27  1:50   57    2:21  167 3:12:03  28.1     62    1:45  192 2:22:41  6:48 
  170   253 6:18:38 Miriam Nicholson  Ottawa       ON CA    6/9    F4549  197   44:35  2:14   89    2:50  178 3:16:04  27.5    176    3:24  166 2:11:24  6:16 
  171   160 6:20:05 Sheila Seaward    Corner Brook NL CA    1/5    F5559  182   42:22  2:08  170    4:25  183 3:18:27  27.2    158    3:01  167 2:11:29  6:16 
  172   129 6:20:07 Iain Harry        Kanata       ON CA   21/27   M4549  164   41:01  2:04  191    5:03  193 3:23:13  26.6    170    3:15  144 2:07:16  6:04 
  173   246 6:21:20 Allan Butler      Ottawa       ON CA   29/36   M4044   70   34:48  1:45   25    1:52  154 3:08:59  28.6     66    1:46  208 2:33:37  7:19 
  174   270 6:21:28 Chris Power       Corner Brook NL CA   30/36   M4044  186   43:27  2:11  195    5:08  191 3:21:06  26.9    190    3:51  145 2:07:27  6:05 
  175   234 6:21:51 Alma Molina Villa Queretaro       MX    8/17   F3034  173   41:27  2:05   61    2:22  171 3:13:18  27.9     45    1:34  193 2:22:50  6:49 
  176    86 6:22:37 Kathryn MacKinnon Salt Springs    CA   12/16   F4044  167   41:05  2:04  185    4:48  179 3:17:09  27.4    207    4:29  178 2:14:44  6:25 
  177    38 6:22:53 Randy Knight      St. John's   NL CA   22/27   M4549  219   48:45  2:27  216    5:57  187 3:19:25  27.1    224    6:18  119 2:02:08  5:49 
  178   274 6:23:09 Peter Hanna       Sydney       NS CA    1/2    M6599  212   46:42  2:21  208    5:29  197 3:24:49  26.4    133    2:37  124 2:03:08  5:52 
  179   217 6:24:09 William Truax     Glendale     CA US   10/14   M5054  236   55:52  2:48  199    5:14  170 3:13:09  28.0    197    3:59  132 2:05:20  5:59 
  180   284 6:24:29 Meagan Jonsson    Winnipeg     MB CA    6/10   F2529  101   37:13  1:52  188    5:00  168 3:12:11  28.1    108    2:11  199 2:27:29  7:02 
  181    88 6:24:34 Mark McGraw       Saint John   NB CA   15/17   M3034   78   35:46  1:48  177    4:29  143 3:06:33  28.9    202    4:16  207 2:33:13  7:18 
  182   190 6:24:57 Nadia Cook        St. John's   NL CA    9/17   F3034  112   37:40  1:53  137    3:40  214 3:32:44  25.4    145    2:48  146 2:07:43  6:05 
  183    26 6:25:30 Ann Marie Lane    Conception B NL CA    4/9    F5054  147   39:43  2:00  202    5:17  199 3:25:30  26.3    187    3:45  164 2:10:56  6:15 
  184   118 6:25:45 Simon Avis        St. John's   NL CA   11/14   M5054  157   40:23  2:02  235    8:24  192 3:22:18  26.7    233    7:48  140 2:06:35  6:02 
  185   195 6:26:36 Gavin White       Corner Brook NL CA   24/25   M3539  191   43:39  2:11  221    6:20  155 3:09:15  28.5    189    3:50  195 2:23:14  6:50 
  186    10 6:27:46 Michelle Cooze    St. John's   NL CA   10/17   F3034  206   46:22  2:20  169    4:23  196 3:24:47  26.4    131    2:33  158 2:09:21  6:10 
  187   219 6:31:09 Laurie Copeland   Jensen Beach FL US    7/9    F4549  129   39:04  1:58  100    3:00  207 3:28:46  25.9    147    2:48  183 2:17:09  6:32 
  188   189 6:31:39 Willi Broeren     Fredericton  NB CA    5/9    F5054  226   50:49  2:33  133    3:36  203 3:27:28  26.0    138    2:40  142 2:06:41  6:02 
  189   226 6:33:11 Robert Hofmann    Perth           AU    4/6    M5559  148   39:51  2:00  193    5:06  145 3:07:15  28.8    193    3:55  213 2:36:45  7:28 
  190   222 6:37:08 Shawn Arnold      St. John's   NL CA   12/12   M2529  188   43:33  2:11  211    5:43  138 3:05:03  29.2    230    7:35  211 2:34:59  7:23 
  191   186 6:38:07 Jane Yardley      Ottawa       ON CA   11/17   F3034  203   45:54  2:18  204    5:21  209 3:30:23  25.7    148    2:49  173 2:13:12  6:21 
  192   280 6:38:30 Didier Girard     Morsang Sur     FX    5/6    M5559  189   43:34  2:11   88    2:49  174 3:14:50  27.7    146    2:48  209 2:34:06  7:21 
  193   136 6:38:31 Sherry Grewal     Paradise     NL CA   13/16   F4044  237   56:27  2:50  184    4:46  213 3:32:17  25.4    171    3:16  116 2:01:21  5:47 
  194   267 6:42:14 Cindy Dollemont   Corner Brook NL CA   12/17   F3034  181   42:20  2:07  203    5:18  222 3:38:47  24.7    166    3:11  170 2:12:16  6:18 
  195   206 6:43:17 Janet Lynn MacNei Ottawa       ON CA   13/17   F3034  220   49:22  2:29  223    6:23  210 3:30:47  25.6    220    6:10  161 2:10:17  6:13 
  196    15 6:44:30 Laura Pomeroy     St. John's   NL CA   11/15   F3539  232   54:28  2:44  220    6:09  226 3:41:14  24.4    186    3:41  106 1:58:33  5:39 
  197   220 6:45:23 James Copeland    Jensen Beach FL US    3/3    M6064  113   37:51  1:54  121    3:22  148 3:07:49  28.8    163    3:08  221 2:52:50  8:14 
  198    45 6:46:27 Andy Hariman      London          GB   16/17   M3034  174   41:43  2:06  174    4:27  190 3:20:49  26.9    178    3:32  212 2:35:39  7:25 
  199    51 6:47:12 Ed Long           Paradise     NL CA   12/14   M5054  227   50:51  2:33  241    9:50  204 3:27:30  26.0    238   10:27  150 2:08:06  6:06 
  200    50 6:47:57 Sandy Hushagen    Belmont         CA    6/9    F5054  223   49:51  2:30  163    4:09  201 3:27:05  26.1    212    5:05  190 2:21:26  6:45 
  201   294 6:53:25 Bruce Pilgrim     Baie Verte   NL CA   23/27   M4549  217   48:30  2:26  214    5:54  200 3:25:39  26.3    192    3:54  203 2:29:06  7:06 
  202   272 6:53:36 Lisa Andersen Jon St.John's    NL CA   12/15   F3539  195   44:14  2:13  156    4:03  223 3:39:46  24.6    106    2:10  194 2:22:54  6:49 
  203   242 6:53:51 Patty Pino        Burlington   ON CA   13/15   F3539  233   54:48  2:45  198    5:14  218 3:34:56  25.1    206    4:25  176 2:14:04  6:24 
  204   117 6:58:59 Gerard MacDonald  Weston       WI US   13/14   M5054  243 1:05:11  3:16  189    5:01  215 3:33:29  25.3    155    2:56  168 2:12:02  6:18 
  205    59 7:02:24 Paul Lamswood     Paradise     NL CA   31/36   M4044  230   52:02  2:37  233    7:42  206 3:27:58  26.0    228    6:46  200 2:27:34  7:02 
  206    42 7:02:51 Ann Chafe         St. John's   NL CA    2/5    F5559  221   49:24  2:29  206    5:26  230 3:48:38  23.6    184    3:39  181 2:15:24  6:27 
  207     7 7:05:48 Courtney Tiller   Mount Pearl  NL CA    7/10   F2529  135   39:13  1:58  200    5:15  220 3:35:33  25.1    216    5:48  218 2:39:40  7:37 
  208    47 7:07:22 Leo Power         St. John's   NL CA   24/27   M4549  205   46:15  2:19  227    6:53  211 3:31:07  25.6    213    5:06  214 2:37:39  7:31 
  209   273 7:08:54 Bill Hardie       West Vancouv BC CA    2/2    M6599  240 1:02:49  3:09  229    7:05  217 3:34:49  25.1    222    6:12  184 2:17:24  6:33 
  210   218 7:09:15 Thomas Hamilton   Beckley      WV US   25/27   M4549  187   43:28  2:11  161    4:09  195 3:24:02  26.5    209    4:33  220 2:52:42  8:14 
  211    92 7:11:03 Elsie Thistle     St. John's   NL CA    8/9    F4549  238   56:41  2:51  212    5:45  202 3:27:15  26.1    169    3:14  216 2:37:43  7:31 
  212   231 7:16:04 Peter Judd        Mississauga  ON CA   32/36   M4044   72   34:57  1:45  118    3:17  198 3:25:11  26.3    194    3:56  229 3:08:20  8:59 
  213   205 7:17:03 Dean Simon        Port au Port NL CA   25/25   M3539  231   52:09  2:37  219    6:09  231 3:49:20  23.5    185    3:41  197 2:25:24  6:56 
  214   223 7:19:54 Nicole Myers      St. John's   NL CA   14/17   F3034  185   43:17  2:10  232    7:36  224 3:39:50  24.6    240   11:10  215 2:37:43  7:31 
  215   309 7:24:27 Patsy Bradbury    St. John's   NL CA    9/9    F4549  210   46:40  2:20  242   10:02  225 3:40:41  24.5    235    8:24  217 2:38:15  7:33 
  216    22 7:26:05 Tana Kayler       St. John's   NL CA   15/17   F3034  160   40:40  2:02  152    3:58  194 3:23:42  26.5     95    2:06  233 3:15:19  9:19 
  217   204 7:27:07 Susan Sparrow     Portugal Cov NL CA   14/16   F4044  228   50:56  2:33  228    6:59  232 3:51:10  23.4    204    4:22  206 2:33:12  7:18 
  218   264 7:27:33 Kathy Cormier     Corner Brook NL CA    7/9    F5054  192   44:02  2:13  243   10:45  233 3:52:35  23.2    239   10:41  202 2:29:05  7:06 
  219   216 7:28:41 Lynda Neuman      Los Angeles  CA US    3/5    F5559  244 1:15:47  3:48  239    8:54  205 3:27:58  26.0    232    7:43  201 2:27:57  7:03 
  220   156 7:29:12 Leon Letto        Mississauga  ON CA   33/36   M4044  199   45:10  2:16  222    6:22  188 3:20:06  27.0    183    3:35  231 3:13:35  9:14 
  221   302 7:32:28 Michelle Bolhuis  Mississauga  ON CA   15/16   F4044  209   46:39  2:20  154    4:01  216 3:34:29  25.2    199    4:01  224 3:02:50  8:43 
  222   167 7:32:48 Katie Dolan       Larchmont    NY US    8/9    F5054  144   39:32  1:59  178    4:37  221 3:35:48  25.0    227    6:20  227 3:06:10  8:52 
  223   138 7:34:41 Kristy Williams   Port Moody   BC CA    8/10   F2529  114   37:52  1:54  172    4:27  219 3:34:56  25.1    221    6:11  230 3:10:48  9:06 
  224    16 7:42:53 Virginia Doerig   St. John's   NL CA   16/16   F4044  229   51:02  2:34  230    7:18  236 4:04:17  22.1    231    7:39  205 2:32:06  7:15 
  225   169 7:44:47 Nina Dang         Fairfax      VA US   14/15   F3539  211   46:41  2:21  205    5:22  241 4:18:55  20.9    198    4:00  204 2:29:26  7:07 
  226    48 7:45:08 Trish McCourt     Halifax      NS CA   16/17   F3034  225   50:30  2:32  236    8:40  228 3:45:53  23.9    180    3:34  222 2:56:15  8:24 
  227    24 7:48:38 Glenn Smith       St.John's    NL CA   26/27   M4549  215   47:44  2:24  181    4:44  208 3:29:10  25.8    161    3:04  234 3:23:37  9:42 
  228   263 7:48:56 Paula Didham      Corner Brook NL CA    9/9    F5054  242 1:04:49  3:15  240    9:40  242 4:20:18  20.7    215    5:39  151 2:08:11  6:07 
  229   145 7:53:52 Jonathan Sasser   Raleigh      NC US   14/14   M5054  222   49:27  2:29  215    5:55  229 3:47:47  23.7    214    5:09  226 3:05:08  8:49 
  230   303 7:57:03 Don Boyles        Middle Cove  NL CA   34/36   M4044  150   39:54  2:00  224    6:23  212 3:31:36  25.5    234    8:06  235 3:30:29 10:02 
  231   182 7:58:28 Penny Moody Corbe St. John's   NL CA    4/5    F5559  235   55:44  2:48  237    8:44  235 3:59:09  22.6    218    5:59  219 2:48:21  8:01 
  232    58 7:59:18 Gary Perry        St. John's   NL CA   27/27   M4549  111   37:38  1:53  143    3:45  240 4:13:47  21.3    225    6:19  223 2:57:27  8:27 
  233   202 8:02:09 Amalia Spensieri  Toronto      ON CA    9/10   F2529  239 1:00:35  3:02  238    8:49  239 4:13:04  21.3    211    5:04  210 2:34:16  7:21 
  234   158 8:04:47 Shannon Ewan      Washington   DC US   17/17   F3034  224   49:52  2:30  210    5:41  234 3:58:19  22.7    167    3:13  228 3:07:20  8:56 
  235   161 8:11:22 Maureen Barry     Corner Brook NL CA    5/5    F5559  234   55:43  2:48  234    8:09  227 3:43:50  24.1    237    9:08  232 3:14:04  9:15 
  236    46 8:39:19 Armand Raz        North York   ON CA   17/17   M3034  241 1:03:52  3:12  244   15:34  238 4:06:12  21.9    236    9:05  225 3:04:13  8:47 
  237     9 8:42:29 Jennifer Lewis    Paradise     NL CA   15/15   F3539  207   46:22  2:20  179    4:41  237 4:05:04  22.0    172    3:16  236 3:42:43 10:37 
  238   388         Len Gushe         Mattawa      ON CA   12/14   PRO      2   23:24  1:11    1    0:51    5 2:18:00  39.1      5    0:59                    
  239   382         Michael Simpson   West Vancouv BC CA   13/14   PRO      7   25:31  1:17   10    1:15    7 2:22:46  37.8     12    1:07                    
  240   392         Charles Perreault Montreal     QC CA   14/14   PRO     11   26:57  1:21    6    0:57   10 2:27:09  36.7      6    1:01                    
  241   143         Jim Scott         Moncton      NB CA   35/36   M4044   95   36:55  1:51   56    2:20   48 2:47:03  32.3    121    2:20                    
  242   248         Murray Legge      Richmond Hil ON CA    6/6    M5559   85   36:22  1:50   48    2:12  102 2:56:45  30.6                                   
  243   159         Jennifer Neill    Fredericton  NB CA   10/10   F2529  194   44:09  2:13   96    2:56                                                      
  244   229         Stephan Elkas     Sherbrooke   QC CA   36/36   M4044  201   45:48  2:18  173    4:27                                                      

         Ironman 70.3 Newfoundland (Relay_Team_Results)
Pasadena, Newfoundland & Labrador, CANADA July 29th, 2007 Weather: Cloudy 25 Degrees Some Showers 
              Timing & Results by Atlantic Chip Event Timing
 
                           Team Relay Results
------------------------------------------------------------------------                   2000 Meter                      90 Km                            21 Km
             Total                                                                    ------SWIM------   ----T1----   ------BIKE-------    -----T2----  ------RUN--------
Place   bib  Time   Team Name       Swimmer         Biker           Runner            Pl   Time   /100   Pl    Time   Pl Time     Km/Hr    Pl    Time   Pl Time     /Km
------  --- ------- --------------  ------------    -------------   -------------     -----------------  -----------  -----------------    -----------  -----------------
    1   307 4:30:15 Mad Moose Maste Adam Sparkes    Darren Stone    Michael Coyne      1   25:13  1:16    2    0:48    1 2:41:32  33.4      2    0:38    1 1:21:52  3:54 
    2   312 4:54:27 Team Casey      Michael Casey   Andrew Casey    Gord Casey         2   25:32  1:17    1    0:43    2 2:43:00  33.1      1    0:35    4 1:44:23  4:59 
    3   112 5:25:12 Team Lewis      David           Peter Lewis     Jon House          5   44:17  2:13    3    1:03    4 3:07:57  28.7      3    0:47    2 1:30:49  4:20 
    4   261 5:58:27 Newton/House    Jon House       Michael Newton  Michael Newton     4   39:01  1:58    4    1:10    3 2:58:55  30.2      5   11:29    5 2:07:37  6:05 
    5   308 6:11:09 Newbury-Rodrigu Tina Newbury    Tina Newbury    Bruce Rodrigues    3   37:46  1:54    5    5:42    5 3:47:19  23.8      4    0:53    3 1:39:12  4:44 
Results originally posted July 29th, 2007 at 10:42:36 pm
Atlantic Chip Online | Atlantic Chip Event Timing
P.O. Box 5 Station A
Fredericton, NB
E3B 4Y2
Email: Mike Richard
Copyright © 2013 Atlantic Chip Timing Services
ChampionChip® and MYLAPS® name and logo copyright © MYLAPS
ES-11
Current server time is 06:33:50 AM Atlantic Time
Page generated in 0.006 seconds